sensor_id;sensor_type;location;lat;lon;timestamp;pressure;altitude;pressure_sealevel;temperature;humidity
55077;BME280;40971;44.702;11.030;2023-03-20T00:08:13;101829.88;;;10.32;91.20
55077;BME280;40971;44.702;11.030;2023-03-20T00:18:19;101823.09;;;10.39;90.45
55077;BME280;40971;44.702;11.030;2023-03-20T00:28:36;101825.19;;;10.35;90.97
55077;BME280;40971;44.702;11.030;2023-03-20T00:38:42;101824.25;;;10.46;90.65
55077;BME280;40971;44.702;11.030;2023-03-20T00:48:46;101823.81;;;10.41;90.46
55077;BME280;40971;44.702;11.030;2023-03-20T00:58:50;101812.19;;;10.34;90.37
55077;BME280;40971;44.702;11.030;2023-03-20T01:08:53;101792.22;;;10.22;90.96
55077;BME280;40971;44.702;11.030;2023-03-20T01:18:59;101787.94;;;10.21;91.03
55077;BME280;40971;44.702;11.030;2023-03-20T01:29:03;101778.13;;;10.23;91.04
55077;BME280;40971;44.702;11.030;2023-03-20T01:39:09;101769.22;;;10.05;90.98
55077;BME280;40971;44.702;11.030;2023-03-20T01:59:26;101770.59;;;10.09;91.64
55077;BME280;40971;44.702;11.030;2023-03-20T02:09:30;101761.06;;;10.08;91.73
55077;BME280;40971;44.702;11.030;2023-03-20T02:50:43;101743.59;;;9.97;92.17
55077;BME280;40971;44.702;11.030;2023-03-20T03:01:13;101743.31;;;9.90;92.09
55077;BME280;40971;44.702;11.030;2023-03-20T03:11:17;101745.09;;;10.00;91.76
55077;BME280;40971;44.702;11.030;2023-03-20T03:21:21;101743.47;;;9.99;92.00
55077;BME280;40971;44.702;11.030;2023-03-20T03:31:25;101719.72;;;10.10;91.79
55077;BME280;40971;44.702;11.030;2023-03-20T03:51:39;101712.50;;;10.02;91.32
55077;BME280;40971;44.702;11.030;2023-03-20T04:01:45;101724.94;;;10.00;91.02
55077;BME280;40971;44.702;11.030;2023-03-20T04:11:50;101729.19;;;9.91;90.68
55077;BME280;40971;44.702;11.030;2023-03-20T04:21:52;101726.28;;;9.94;90.27
55077;BME280;40971;44.702;11.030;2023-03-20T04:31:56;101729.03;;;9.83;91.24
55077;BME280;40971;44.702;11.030;2023-03-20T04:41:59;101735.91;;;9.75;90.93
55077;BME280;40971;44.702;11.030;2023-03-20T04:52:02;101746.38;;;9.65;90.59
55077;BME280;40971;44.702;11.030;2023-03-20T05:02:07;101734.22;;;9.64;89.77
55077;BME280;40971;44.702;11.030;2023-03-20T05:12:10;101730.91;;;9.62;89.51
55077;BME280;40971;44.702;11.030;2023-03-20T05:22:12;101749.03;;;9.75;89.30
55077;BME280;40971;44.702;11.030;2023-03-20T05:32:15;101742.53;;;9.69;89.93
55077;BME280;40971;44.702;11.030;2023-03-20T05:42:17;101753.88;;;9.70;90.35
55077;BME280;40971;44.702;11.030;2023-03-20T05:52:19;101772.66;;;9.65;90.50
55077;BME280;40971;44.702;11.030;2023-03-20T06:02:24;101773.41;;;9.56;90.95
55077;BME280;40971;44.702;11.030;2023-03-20T06:12:27;101788.31;;;9.46;91.17
55077;BME280;40971;44.702;11.030;2023-03-20T06:22:31;101788.56;;;9.43;90.87
55077;BME280;40971;44.702;11.030;2023-03-20T06:32:35;101795.19;;;9.47;90.47
55077;BME280;40971;44.702;11.030;2023-03-20T06:42:37;101809.22;;;9.57;90.75
55077;BME280;40971;44.702;11.030;2023-03-20T06:52:39;101814.13;;;9.71;89.87
55077;BME280;40971;44.702;11.030;2023-03-20T07:02:42;101829.34;;;9.77;89.08
55077;BME280;40971;44.702;11.030;2023-03-20T07:12:45;101835.06;;;9.82;89.07
55077;BME280;40971;44.702;11.030;2023-03-20T07:22:47;101847.22;;;10.14;89.17
55077;BME280;40971;44.702;11.030;2023-03-20T07:32:52;101846.19;;;10.26;87.79
55077;BME280;40971;44.702;11.030;2023-03-20T07:42:54;101860.84;;;10.28;87.24
55077;BME280;40971;44.702;11.030;2023-03-20T07:52:59;101862.47;;;10.69;87.27
55077;BME280;40971;44.702;11.030;2023-03-20T08:03:02;101868.19;;;10.74;86.37
55077;BME280;40971;44.702;11.030;2023-03-20T08:13:07;101883.94;;;10.65;86.52
55077;BME280;40971;44.702;11.030;2023-03-20T08:23:10;101881.47;;;10.92;85.59
55077;BME280;40971;44.702;11.030;2023-03-20T08:33:15;101889.53;;;10.90;84.94
55077;BME280;40971;44.702;11.030;2023-03-20T08:43:19;101892.31;;;11.08;84.90
55077;BME280;40971;44.702;11.030;2023-03-20T08:53:22;101889.25;;;11.32;84.47
55077;BME280;40971;44.702;11.030;2023-03-20T09:03:25;101899.78;;;11.32;83.67
55077;BME280;40971;44.702;11.030;2023-03-20T09:13:27;101907.41;;;11.44;82.90
55077;BME280;40971;44.702;11.030;2023-03-20T09:23:32;101902.38;;;11.89;82.73
55077;BME280;40971;44.702;11.030;2023-03-20T09:33:34;101904.84;;;12.92;77.26
55077;BME280;40971;44.702;11.030;2023-03-20T09:44:03;101904.56;;;13.12;73.79
55077;BME280;40971;44.702;11.030;2023-03-20T09:54:26;101890.84;;;12.81;77.05
55077;BME280;40971;44.702;11.030;2023-03-20T10:04:31;101895.25;;;12.91;75.86
55077;BME280;40971;44.702;11.030;2023-03-20T10:46:34;101897.47;;;13.74;68.81
55077;BME280;40971;44.702;11.030;2023-03-20T10:56:43;101885.06;;;13.92;68.86
55077;BME280;40971;44.702;11.030;2023-03-20T11:17:08;101871.59;;;15.19;65.85
55077;BME280;40971;44.702;11.030;2023-03-20T11:27:12;101866.31;;;15.67;61.47
55077;BME280;40971;44.702;11.030;2023-03-20T11:37:25;101852.66;;;14.66;63.33
55077;BME280;40971;44.702;11.030;2023-03-20T11:47:32;101833.03;;;14.92;65.02
55077;BME280;40971;44.702;11.030;2023-03-20T11:57:40;101834.84;;;15.16;65.89
55077;BME280;40971;44.702;11.030;2023-03-20T12:07:43;101825.94;;;15.49;65.04
55077;BME280;40971;44.702;11.030;2023-03-20T12:17:54;101821.59;;;15.16;59.28
55077;BME280;40971;44.702;11.030;2023-03-20T12:28:05;101811.31;;;15.61;59.91
55077;BME280;40971;44.702;11.030;2023-03-20T12:38:31;101799.75;;;15.14;60.12
55077;BME280;40971;44.702;11.030;2023-03-20T12:58:53;101783.47;;;17.92;57.72
55077;BME280;40971;44.702;11.030;2023-03-20T13:29:55;101767.63;;;18.35;52.05
55077;BME280;40971;44.702;11.030;2023-03-20T13:50:45;101752.84;;;17.96;49.10
55077;BME280;40971;44.702;11.030;2023-03-20T14:00:52;101759.84;;;17.97;51.93
55077;BME280;40971;44.702;11.030;2023-03-20T14:21:13;101751.53;;;17.34;54.36
55077;BME280;40971;44.702;11.030;2023-03-20T14:51:40;101745.81;;;18.25;50.48
55077;BME280;40971;44.702;11.030;2023-03-20T15:02:05;101743.13;;;16.93;55.10
55077;BME280;40971;44.702;11.030;2023-03-20T15:12:25;101744.94;;;16.55;55.54
55077;BME280;40971;44.702;11.030;2023-03-20T15:22:28;101749.25;;;15.87;55.79
55077;BME280;40971;44.702;11.030;2023-03-20T15:32:32;101749.34;;;16.09;61.15
55077;BME280;40971;44.702;11.030;2023-03-20T15:42:35;101742.06;;;16.34;58.74
55077;BME280;40971;44.702;11.030;2023-03-20T15:52:44;101746.09;;;16.75;57.78
55077;BME280;40971;44.702;11.030;2023-03-20T16:02:54;101744.47;;;16.74;53.68
55077;BME280;40971;44.702;11.030;2023-03-20T16:12:56;101750.31;;;16.39;56.83
55077;BME280;40971;44.702;11.030;2023-03-20T16:23:02;101744.72;;;16.34;56.44
55077;BME280;40971;44.702;11.030;2023-03-20T16:33:13;101754.47;;;15.64;58.30
55077;BME280;40971;44.702;11.030;2023-03-20T16:43:18;101749.75;;;15.11;63.24
55077;BME280;40971;44.702;11.030;2023-03-20T16:53:28;101740.66;;;14.49;66.43
55077;BME280;40971;44.702;11.030;2023-03-20T17:03:39;101741.00;;;14.54;63.04
55077;BME280;40971;44.702;11.030;2023-03-20T17:13:46;101740.94;;;13.88;66.20
55077;BME280;40971;44.702;11.030;2023-03-20T17:23:49;101738.28;;;13.46;68.14
55077;BME280;40971;44.702;11.030;2023-03-20T17:33:51;101754.50;;;13.25;69.35
55077;BME280;40971;44.702;11.030;2023-03-20T17:43:55;101762.69;;;13.14;70.04
55077;BME280;40971;44.702;11.030;2023-03-20T17:53:58;101755.22;;;12.74;73.57
55077;BME280;40971;44.702;11.030;2023-03-20T18:04:02;101769.56;;;12.09;75.03
55077;BME280;40971;44.702;11.030;2023-03-20T18:14:05;101779.03;;;11.56;77.23
55077;BME280;40971;44.702;11.030;2023-03-20T18:24:09;101777.34;;;11.18;79.43
55077;BME280;40971;44.702;11.030;2023-03-20T18:34:12;101778.41;;;11.35;79.96
55077;BME280;40971;44.702;11.030;2023-03-20T18:44:16;101786.91;;;11.19;81.52
55077;BME280;40971;44.702;11.030;2023-03-20T18:54:21;101791.91;;;10.93;82.72
55077;BME280;40971;44.702;11.030;2023-03-20T19:04:22;101803.66;;;10.89;83.42
55077;BME280;40971;44.702;11.030;2023-03-20T19:14:27;101808.25;;;10.87;83.85
55077;BME280;40971;44.702;11.030;2023-03-20T19:24:32;101788.16;;;10.67;85.05
55077;BME280;40971;44.702;11.030;2023-03-20T19:34:34;101794.22;;;10.48;85.23
55077;BME280;40971;44.702;11.030;2023-03-20T19:44:36;101807.78;;;10.44;85.43
55077;BME280;40971;44.702;11.030;2023-03-20T19:54:42;101812.88;;;10.36;85.67
55077;BME280;40971;44.702;11.030;2023-03-20T20:04:46;101815.19;;;10.20;84.91
55077;BME280;40971;44.702;11.030;2023-03-20T20:14:51;101824.94;;;9.78;84.25
55077;BME280;40971;44.702;11.030;2023-03-20T20:24:54;101831.19;;;9.56;84.21
55077;BME280;40971;44.702;11.030;2023-03-20T20:34:56;101839.75;;;9.58;84.33
55077;BME280;40971;44.702;11.030;2023-03-20T20:45:03;101844.91;;;9.07;83.66
55077;BME280;40971;44.702;11.030;2023-03-20T20:55:07;101852.75;;;8.87;85.11
55077;BME280;40971;44.702;11.030;2023-03-20T21:05:11;101850.81;;;8.12;87.41
55077;BME280;40971;44.702;11.030;2023-03-20T21:15:15;101846.63;;;8.10;89.41
55077;BME280;40971;44.702;11.030;2023-03-20T21:25:18;101868.59;;;8.31;89.06
55077;BME280;40971;44.702;11.030;2023-03-20T21:35:22;101856.66;;;8.38;92.03
55077;BME280;40971;44.702;11.030;2023-03-20T21:45:27;101863.44;;;8.30;90.10
55077;BME280;40971;44.702;11.030;2023-03-20T21:55:31;101859.63;;;7.43;89.85
55077;BME280;40971;44.702;11.030;2023-03-20T22:05:38;101859.19;;;7.15;89.02
55077;BME280;40971;44.702;11.030;2023-03-20T22:15:40;101861.47;;;7.19;89.45
55077;BME280;40971;44.702;11.030;2023-03-20T22:25:42;101850.16;;;6.84;90.45
55077;BME280;40971;44.702;11.030;2023-03-20T22:35:45;101851.75;;;6.97;90.16
55077;BME280;40971;44.702;11.030;2023-03-20T22:45:49;101855.81;;;6.78;89.16
55077;BME280;40971;44.702;11.030;2023-03-20T22:55:54;101850.47;;;6.56;89.69
55077;BME280;40971;44.702;11.030;2023-03-20T23:06:04;101855.22;;;6.62;90.07
55077;BME280;40971;44.702;11.030;2023-03-20T23:16:07;101849.00;;;6.52;90.29
55077;BME280;40971;44.702;11.030;2023-03-20T23:26:18;101850.84;;;6.62;89.72
55077;BME280;40971;44.702;11.030;2023-03-20T23:36:24;101847.78;;;6.44;89.35
55077;BME280;40971;44.702;11.030;2023-03-20T23:46:28;101841.16;;;6.15;88.80
55077;BME280;40971;44.702;11.030;2023-03-20T23:56:30;101827.63;;;6.34;88.61
